createdAt,value
2023-03-06T00:00:02.431Z,47.36705656823852
2023-03-06T00:15:04.035Z,47.20298167165746
2023-03-06T00:30:01.974Z,47.29990687060117
2023-03-06T00:45:01.641Z,47.22010499975385
2023-03-06T01:00:02.325Z,46.90331693230808
2023-03-06T01:15:02.033Z,46.127045409639585
2023-03-06T01:30:01.838Z,45.00641754562949
2023-03-06T01:45:01.588Z,46.7858629608209
2023-03-06T02:00:02.320Z,46.81097462035883
2023-03-06T02:15:02.039Z,46.55769120154993
2023-03-06T02:30:01.741Z,46.025106316116904
2023-03-06T02:45:01.560Z,45.759652912396206
2023-03-06T03:00:02.248Z,45.37797620300048
2023-03-06T03:15:01.941Z,45.21781901849852
2023-03-06T03:30:01.662Z,45.19145842024562
2023-03-06T03:45:01.355Z,45.77827623373745
2023-03-06T04:00:02.101Z,46.222296428100556
2023-03-06T04:15:01.784Z,45.92082030726675
2023-03-06T04:30:01.509Z,46.03122494896923
2023-03-06T04:45:02.200Z,46.18075010764181
2023-03-06T05:00:01.854Z,45.88555833210202
2023-03-06T05:15:01.564Z,45.678639120046824
2023-03-06T05:30:01.213Z,45.84293035561223
2023-03-06T05:45:01.833Z,46.03167788989163
2023-03-06T06:00:01.481Z,45.67585313386143
2023-03-06T06:15:02.486Z,46.133142403576954
2023-03-06T06:30:02.124Z,46.86931359459606
2023-03-06T06:45:01.739Z,46.81556213041452
2023-03-06T07:00:02.389Z,46.967353579359134
2023-03-06T07:15:02.040Z,47.57171442398713
2023-03-06T07:30:01.857Z,48.14356480219928
2023-03-06T07:45:01.490Z,47.7595066810757
2023-03-06T08:00:02.095Z,47.42068894597806
2023-03-06T08:15:01.765Z,47.28465921963938
2023-03-06T08:30:01.433Z,48.3974761691652
2023-03-06T08:45:02.087Z,47.845065242967024
2023-03-06T09:00:01.700Z,47.99924361703316
2023-03-06T09:15:01.345Z,47.66252447371378
2023-03-06T09:30:02.027Z,45.04259903840315
2023-03-06T09:45:01.667Z,39.75205461118154
2023-03-06T10:00:04.076Z,39.708183469576205
2023-03-06T10:15:02.235Z,41.29493477176336
2023-03-06T10:30:03.899Z,40.29684636146361
2023-03-06T10:45:01.887Z,38.39879767721832
2023-03-06T11:00:01.536Z,31.151880142223714
2023-03-06T11:15:02.225Z,28.64331240962638
2023-03-06T11:30:01.915Z,37.18247276658545
2023-03-06T11:45:03.051Z,27.911182755428676
2023-03-06T12:00:01.942Z,38.23239953285161
2023-03-06T12:15:01.730Z,38.75428709233901
2023-03-06T12:30:01.465Z,39.70713408453947
2023-03-06T12:45:02.120Z,34.558611433617514
2023-03-06T13:00:01.775Z,25.769432810414102
2023-03-06T13:15:01.404Z,26.04866269600759
2023-03-06T13:30:02.087Z,34.5902467095067
2023-03-06T13:45:01.761Z,38.2317524974933
2023-03-06T14:00:08.950Z,33.6764459538238
2023-03-06T14:15:01.709Z,33.006313987213765
2023-03-06T14:30:02.404Z,36.79226751308596
2023-03-06T14:45:02.105Z,36.37249890254376
2023-03-06T15:00:01.748Z,35.141966229014606
2023-03-06T15:15:02.365Z,31.44816166765478
2023-03-06T15:30:02.055Z,34.205192544823355
2023-03-06T15:45:01.790Z,36.99796794749438
2023-03-06T16:00:01.488Z,37.59817420329973
2023-03-06T16:15:02.212Z,39.36259968784644
2023-03-06T16:30:01.869Z,40.158393072426605
2023-03-06T16:45:01.554Z,41.30623168839882
2023-03-06T17:00:02.261Z,42.5206584916929
2023-03-06T17:15:01.986Z,43.39335279380731
2023-03-06T17:30:01.694Z,43.50175088941835
2023-03-06T17:45:01.331Z,43.35446339982187
2023-03-06T18:00:01.998Z,43.51013679668768
2023-03-06T18:15:02.014Z,43.38675021603313
2023-03-06T18:30:01.745Z,43.420918076926114
2023-03-06T18:45:02.427Z,43.4712992451295
2023-03-06T19:00:02.110Z,43.17611291006253
2023-03-06T19:15:01.816Z,44.97048883608746
2023-03-06T19:30:02.517Z,44.989463306878996
2023-03-06T19:45:02.187Z,46.035400510927595
2023-03-06T20:00:01.870Z,47.206020158652656
2023-03-06T20:15:01.547Z,47.86023390411026
2023-03-06T20:30:02.264Z,48.3652578812915
2023-03-06T20:45:01.961Z,49.3319273147811
2023-03-06T21:00:01.696Z,50.309084981196925
2023-03-06T21:15:02.426Z,50.87089568029145
2023-03-06T21:30:02.113Z,51.300469998078356
2023-03-06T21:45:01.904Z,52.212453664389244
2023-03-06T22:00:01.591Z,52.54795853697329
2023-03-06T22:15:02.263Z,52.58756234259194
2023-03-06T22:30:01.967Z,52.63778354335104
2023-03-06T22:45:01.675Z,52.784728743430804
2023-03-06T23:00:02.355Z,53.216149817130855
2023-03-06T23:15:02.183Z,53.325512639792386
2023-03-06T23:30:01.938Z,53.59608962324916
2023-03-06T23:45:01.623Z,54.071090375603276
